sensor_id;sensor_type;location;lat;lon;timestamp;P1;durP1;ratioP1;P2;durP2;ratioP2
42186;SDS011;27858;51.414;0.018;2023-04-27T04:01:54;16.17;;;7.35;;
42186;SDS011;27858;51.414;0.018;2023-04-27T04:04:26;14.18;;;6.25;;
42186;SDS011;27858;51.414;0.018;2023-04-27T04:06:53;13.50;;;7.72;;
42186;SDS011;27858;51.414;0.018;2023-04-27T04:09:19;16.83;;;7.65;;
42186;SDS011;27858;51.414;0.018;2023-04-27T04:11:50;14.27;;;8.70;;
42186;SDS011;27858;51.414;0.018;2023-04-27T04:14:17;15.60;;;8.40;;
42186;SDS011;27858;51.414;0.018;2023-04-27T04:16:44;14.60;;;6.47;;
42186;SDS011;27858;51.414;0.018;2023-04-27T04:19:10;14.07;;;8.00;;
42186;SDS011;27858;51.414;0.018;2023-04-27T04:21:37;12.80;;;8.15;;
42186;SDS011;27858;51.414;0.018;2023-04-27T04:24:04;18.20;;;8.65;;
42186;SDS011;27858;51.414;0.018;2023-04-27T04:26:32;15.85;;;8.43;;
42186;SDS011;27858;51.414;0.018;2023-04-27T04:28:59;13.95;;;7.35;;
42186;SDS011;27858;51.414;0.018;2023-04-27T04:31:26;16.02;;;8.35;;
42186;SDS011;27858;51.414;0.018;2023-04-27T04:33:53;14.02;;;7.55;;
42186;SDS011;27858;51.414;0.018;2023-04-27T04:36:19;14.95;;;7.75;;
42186;SDS011;27858;51.414;0.018;2023-04-27T04:38:46;14.48;;;7.78;;
42186;SDS011;27858;51.414;0.018;2023-04-27T04:41:13;19.38;;;8.73;;
42186;SDS011;27858;51.414;0.018;2023-04-27T04:43:40;17.08;;;8.55;;
42186;SDS011;27858;51.414;0.018;2023-04-27T04:46:07;14.70;;;7.68;;
42186;SDS011;27858;51.414;0.018;2023-04-27T04:48:34;20.02;;;8.95;;
42186;SDS011;27858;51.414;0.018;2023-04-27T04:51:00;19.75;;;7.85;;
42186;SDS011;27858;51.414;0.018;2023-04-27T04:53:29;13.82;;;7.68;;
42186;SDS011;27858;51.414;0.018;2023-04-27T04:55:56;16.58;;;7.35;;
42186;SDS011;27858;51.414;0.018;2023-04-27T04:58:23;20.60;;;9.95;;
42186;SDS011;27858;51.414;0.018;2023-04-27T05:00:50;16.90;;;9.30;;
42186;SDS011;27858;51.414;0.018;2023-04-27T05:03:16;19.20;;;10.23;;
42186;SDS011;27858;51.414;0.018;2023-04-27T05:05:43;21.58;;;9.05;;
42186;SDS011;27858;51.414;0.018;2023-04-27T05:08:10;21.65;;;9.38;;
42186;SDS011;27858;51.414;0.018;2023-04-27T05:10:38;21.02;;;10.63;;
42186;SDS011;27858;51.414;0.018;2023-04-27T05:13:04;17.88;;;9.60;;
42186;SDS011;27858;51.414;0.018;2023-04-27T05:15:32;19.08;;;10.07;;
42186;SDS011;27858;51.414;0.018;2023-04-27T05:17:59;17.38;;;8.23;;
42186;SDS011;27858;51.414;0.018;2023-04-27T05:20:26;16.17;;;8.85;;
42186;SDS011;27858;51.414;0.018;2023-04-27T05:22:52;21.63;;;10.02;;
42186;SDS011;27858;51.414;0.018;2023-04-27T05:25:19;19.02;;;10.07;;
42186;SDS011;27858;51.414;0.018;2023-04-27T05:27:46;19.90;;;8.88;;
42186;SDS011;27858;51.414;0.018;2023-04-27T05:30:12;25.05;;;10.38;;
42186;SDS011;27858;51.414;0.018;2023-04-27T05:32:39;21.75;;;10.30;;
42186;SDS011;27858;51.414;0.018;2023-04-27T05:35:06;16.40;;;9.10;;
42186;SDS011;27858;51.414;0.018;2023-04-27T05:37:33;19.90;;;10.63;;
42186;SDS011;27858;51.414;0.018;2023-04-27T05:40:00;23.23;;;11.65;;
42186;SDS011;27858;51.414;0.018;2023-04-27T05:42:27;22.30;;;9.73;;
42186;SDS011;27858;51.414;0.018;2023-04-27T05:44:54;21.52;;;10.02;;
42186;SDS011;27858;51.414;0.018;2023-04-27T05:47:21;29.75;;;10.45;;
42186;SDS011;27858;51.414;0.018;2023-04-27T05:49:51;18.80;;;11.23;;
42186;SDS011;27858;51.414;0.018;2023-04-27T05:52:18;19.55;;;10.00;;
42186;SDS011;27858;51.414;0.018;2023-04-27T05:54:46;21.15;;;11.10;;
42186;SDS011;27858;51.414;0.018;2023-04-27T05:57:14;32.03;;;12.05;;
42186;SDS011;27858;51.414;0.018;2023-04-27T05:59:41;21.70;;;11.40;;
42186;SDS011;27858;51.414;0.018;2023-04-27T06:02:08;27.77;;;11.95;;
42186;SDS011;27858;51.414;0.018;2023-04-27T06:04:35;22.13;;;10.82;;
42186;SDS011;27858;51.414;0.018;2023-04-27T06:07:12;21.45;;;12.98;;
42186;SDS011;27858;51.414;0.018;2023-04-27T06:09:41;19.27;;;12.30;;
42186;SDS011;27858;51.414;0.018;2023-04-27T06:12:08;17.25;;;10.57;;
42186;SDS011;27858;51.414;0.018;2023-04-27T06:14:36;22.17;;;12.70;;
42186;SDS011;27858;51.414;0.018;2023-04-27T06:17:03;19.30;;;11.43;;
42186;SDS011;27858;51.414;0.018;2023-04-27T06:19:30;19.13;;;10.73;;
42186;SDS011;27858;51.414;0.018;2023-04-27T06:21:56;24.85;;;12.65;;
42186;SDS011;27858;51.414;0.018;2023-04-27T06:24:23;32.10;;;12.68;;
42186;SDS011;27858;51.414;0.018;2023-04-27T06:26:50;20.90;;;11.43;;
42186;SDS011;27858;51.414;0.018;2023-04-27T06:29:17;17.63;;;9.60;;
42186;SDS011;27858;51.414;0.018;2023-04-27T06:31:43;22.35;;;12.65;;
42186;SDS011;27858;51.414;0.018;2023-04-27T06:34:10;18.35;;;10.45;;
42186;SDS011;27858;51.414;0.018;2023-04-27T06:36:37;27.00;;;10.23;;
42186;SDS011;27858;51.414;0.018;2023-04-27T06:39:04;17.23;;;10.00;;
42186;SDS011;27858;51.414;0.018;2023-04-27T06:41:31;22.75;;;10.60;;
42186;SDS011;27858;51.414;0.018;2023-04-27T06:43:59;19.08;;;10.90;;
42186;SDS011;27858;51.414;0.018;2023-04-27T06:46:26;21.10;;;10.95;;
42186;SDS011;27858;51.414;0.018;2023-04-27T06:48:53;20.83;;;10.80;;
42186;SDS011;27858;51.414;0.018;2023-04-27T06:51:19;17.77;;;10.40;;
42186;SDS011;27858;51.414;0.018;2023-04-27T06:53:46;20.50;;;10.57;;
42186;SDS011;27858;51.414;0.018;2023-04-27T06:56:13;18.02;;;10.13;;
42186;SDS011;27858;51.414;0.018;2023-04-27T06:58:39;17.10;;;10.32;;
42186;SDS011;27858;51.414;0.018;2023-04-27T07:01:06;21.85;;;10.38;;
42186;SDS011;27858;51.414;0.018;2023-04-27T07:03:33;18.15;;;10.27;;
42186;SDS011;27858;51.414;0.018;2023-04-27T07:06:02;20.10;;;10.25;;
42186;SDS011;27858;51.414;0.018;2023-04-27T07:08:28;24.55;;;9.95;;
42186;SDS011;27858;51.414;0.018;2023-04-27T07:10:55;13.60;;;8.20;;
42186;SDS011;27858;51.414;0.018;2023-04-27T07:13:22;18.17;;;10.07;;
42186;SDS011;27858;51.414;0.018;2023-04-27T07:15:53;14.90;;;9.93;;
42186;SDS011;27858;51.414;0.018;2023-04-27T07:18:23;17.40;;;9.25;;
42186;SDS011;27858;51.414;0.018;2023-04-27T07:20:53;20.17;;;9.50;;
42186;SDS011;27858;51.414;0.018;2023-04-27T07:23:20;13.38;;;8.48;;
42186;SDS011;27858;51.414;0.018;2023-04-27T07:25:47;16.70;;;9.20;;
42186;SDS011;27858;51.414;0.018;2023-04-27T07:28:14;11.98;;;8.20;;
42186;SDS011;27858;51.414;0.018;2023-04-27T07:30:41;12.80;;;8.18;;
42186;SDS011;27858;51.414;0.018;2023-04-27T07:33:08;14.93;;;8.35;;
42186;SDS011;27858;51.414;0.018;2023-04-27T07:35:35;15.73;;;8.50;;
42186;SDS011;27858;51.414;0.018;2023-04-27T07:38:02;13.57;;;7.88;;
42186;SDS011;27858;51.414;0.018;2023-04-27T07:40:29;21.42;;;9.95;;
42186;SDS011;27858;51.414;0.018;2023-04-27T07:42:58;13.05;;;7.03;;
42186;SDS011;27858;51.414;0.018;2023-04-27T07:45:25;11.07;;;7.82;;
42186;SDS011;27858;51.414;0.018;2023-04-27T07:47:59;20.25;;;8.85;;
42186;SDS011;27858;51.414;0.018;2023-04-27T07:50:27;12.23;;;8.15;;
42186;SDS011;27858;51.414;0.018;2023-04-27T07:52:55;16.75;;;8.68;;
42186;SDS011;27858;51.414;0.018;2023-04-27T07:55:23;13.15;;;8.20;;
42186;SDS011;27858;51.414;0.018;2023-04-27T07:57:54;19.90;;;8.32;;
42186;SDS011;27858;51.414;0.018;2023-04-27T08:00:22;11.90;;;6.80;;
42186;SDS011;27858;51.414;0.018;2023-04-27T08:02:53;13.02;;;7.47;;
42186;SDS011;27858;51.414;0.018;2023-04-27T08:05:20;15.05;;;6.10;;
42186;SDS011;27858;51.414;0.018;2023-04-27T08:07:48;20.52;;;8.18;;
42186;SDS011;27858;51.414;0.018;2023-04-27T08:10:15;15.07;;;6.40;;
42186;SDS011;27858;51.414;0.018;2023-04-27T08:12:42;13.25;;;6.78;;
42186;SDS011;27858;51.414;0.018;2023-04-27T08:15:09;10.73;;;6.45;;
42186;SDS011;27858;51.414;0.018;2023-04-27T08:17:36;17.98;;;7.28;;
42186;SDS011;27858;51.414;0.018;2023-04-27T08:20:06;9.18;;;6.20;;
42186;SDS011;27858;51.414;0.018;2023-04-27T08:22:37;12.15;;;6.40;;
42186;SDS011;27858;51.414;0.018;2023-04-27T08:25:07;10.02;;;5.78;;
42186;SDS011;27858;51.414;0.018;2023-04-27T08:27:37;17.88;;;7.05;;
42186;SDS011;27858;51.414;0.018;2023-04-27T08:30:05;8.95;;;5.53;;
42186;SDS011;27858;51.414;0.018;2023-04-27T08:32:32;12.60;;;6.60;;
42186;SDS011;27858;51.414;0.018;2023-04-27T08:34:59;11.60;;;6.32;;
42186;SDS011;27858;51.414;0.018;2023-04-27T08:37:26;15.38;;;5.55;;
42186;SDS011;27858;51.414;0.018;2023-04-27T08:39:53;16.73;;;6.65;;
42186;SDS011;27858;51.414;0.018;2023-04-27T08:42:19;12.90;;;5.72;;
42186;SDS011;27858;51.414;0.018;2023-04-27T08:44:46;11.40;;;6.32;;
42186;SDS011;27858;51.414;0.018;2023-04-27T08:47:13;12.50;;;5.95;;
42186;SDS011;27858;51.414;0.018;2023-04-27T08:49:40;12.60;;;4.93;;
42186;SDS011;27858;51.414;0.018;2023-04-27T08:52:14;15.25;;;6.43;;
42186;SDS011;27858;51.414;0.018;2023-04-27T08:54:42;10.27;;;5.85;;
42186;SDS011;27858;51.414;0.018;2023-04-27T08:57:09;10.48;;;5.60;;
42186;SDS011;27858;51.414;0.018;2023-04-27T08:59:41;9.07;;;4.50;;
42186;SDS011;27858;51.414;0.018;2023-04-27T09:02:19;12.68;;;5.97;;
42186;SDS011;27858;51.414;0.018;2023-04-27T09:04:46;10.07;;;5.22;;
42186;SDS011;27858;51.414;0.018;2023-04-27T09:07:17;22.48;;;6.00;;
42186;SDS011;27858;51.414;0.018;2023-04-27T09:09:44;10.10;;;5.57;;
42186;SDS011;27858;51.414;0.018;2023-04-27T09:12:15;10.55;;;5.72;;
42186;SDS011;27858;51.414;0.018;2023-04-27T09:14:59;7.57;;;4.82;;
42186;SDS011;27858;51.414;0.018;2023-04-27T09:17:31;9.60;;;5.57;;
42186;SDS011;27858;51.414;0.018;2023-04-27T09:20:05;15.38;;;6.85;;
42186;SDS011;27858;51.414;0.018;2023-04-27T09:22:43;10.23;;;5.90;;
42186;SDS011;27858;51.414;0.018;2023-04-27T09:25:28;8.48;;;4.53;;
42186;SDS011;27858;51.414;0.018;2023-04-27T09:30:23;12.80;;;5.93;;
42186;SDS011;27858;51.414;0.018;2023-04-27T09:32:54;10.55;;;5.65;;
42186;SDS011;27858;51.414;0.018;2023-04-27T09:35:30;14.68;;;6.15;;
42186;SDS011;27858;51.414;0.018;2023-04-27T09:37:58;9.00;;;5.88;;
42186;SDS011;27858;51.414;0.018;2023-04-27T09:40:26;11.90;;;5.20;;
42186;SDS011;27858;51.414;0.018;2023-04-27T09:42:56;10.30;;;4.78;;
42186;SDS011;27858;51.414;0.018;2023-04-27T09:45:26;9.30;;;4.95;;
42186;SDS011;27858;51.414;0.018;2023-04-27T09:47:53;8.85;;;5.28;;
42186;SDS011;27858;51.414;0.018;2023-04-27T09:50:20;19.40;;;7.15;;
42186;SDS011;27858;51.414;0.018;2023-04-27T09:52:47;10.45;;;5.97;;
42186;SDS011;27858;51.414;0.018;2023-04-27T09:55:15;7.65;;;4.30;;
42186;SDS011;27858;51.414;0.018;2023-04-27T10:09:34;7.57;;;4.18;;
42186;SDS011;27858;51.414;0.018;2023-04-27T10:15:12;6.63;;;4.35;;
42186;SDS011;27858;51.414;0.018;2023-04-27T10:17:47;10.20;;;4.10;;
42186;SDS011;27858;51.414;0.018;2023-04-27T10:20:15;8.52;;;4.28;;
42186;SDS011;27858;51.414;0.018;2023-04-27T10:25:20;13.32;;;4.78;;
42186;SDS011;27858;51.414;0.018;2023-04-27T10:27:54;8.57;;;4.40;;
42186;SDS011;27858;51.414;0.018;2023-04-27T10:30:26;7.30;;;3.97;;
42186;SDS011;27858;51.414;0.018;2023-04-27T10:33:04;9.30;;;4.10;;
42186;SDS011;27858;51.414;0.018;2023-04-27T10:38:18;8.95;;;4.22;;
42186;SDS011;27858;51.414;0.018;2023-04-27T10:40:56;8.68;;;3.58;;
42186;SDS011;27858;51.414;0.018;2023-04-27T10:43:28;10.20;;;5.32;;
42186;SDS011;27858;51.414;0.018;2023-04-27T10:46:09;14.93;;;4.95;;
42186;SDS011;27858;51.414;0.018;2023-04-27T10:48:40;6.88;;;3.95;;
42186;SDS011;27858;51.414;0.018;2023-04-27T10:51:08;11.63;;;4.80;;
42186;SDS011;27858;51.414;0.018;2023-04-27T10:53:35;8.50;;;4.05;;
42186;SDS011;27858;51.414;0.018;2023-04-27T10:56:03;9.82;;;4.30;;
42186;SDS011;27858;51.414;0.018;2023-04-27T10:58:32;6.82;;;3.78;;
42186;SDS011;27858;51.414;0.018;2023-04-27T11:01:07;8.40;;;3.78;;
42186;SDS011;27858;51.414;0.018;2023-04-27T11:03:34;8.57;;;4.45;;
42186;SDS011;27858;51.414;0.018;2023-04-27T11:06:02;4.60;;;3.33;;
42186;SDS011;27858;51.414;0.018;2023-04-27T11:08:31;7.68;;;3.75;;
42186;SDS011;27858;51.414;0.018;2023-04-27T11:11:01;11.35;;;4.97;;
42186;SDS011;27858;51.414;0.018;2023-04-27T11:13:28;10.93;;;4.30;;
42186;SDS011;27858;51.414;0.018;2023-04-27T11:15:57;14.13;;;4.65;;
42186;SDS011;27858;51.414;0.018;2023-04-27T11:18:25;8.52;;;3.85;;
42186;SDS011;27858;51.414;0.018;2023-04-27T11:23:54;6.25;;;3.30;;
42186;SDS011;27858;51.414;0.018;2023-04-27T11:26:22;8.18;;;3.58;;
42186;SDS011;27858;51.414;0.018;2023-04-27T11:28:58;4.85;;;3.03;;
42186;SDS011;27858;51.414;0.018;2023-04-27T11:31:27;6.47;;;3.20;;
42186;SDS011;27858;51.414;0.018;2023-04-27T11:34:15;5.15;;;3.03;;
42186;SDS011;27858;51.414;0.018;2023-04-27T11:36:54;8.23;;;3.20;;
42186;SDS011;27858;51.414;0.018;2023-04-27T11:39:36;17.10;;;4.40;;
42186;SDS011;27858;51.414;0.018;2023-04-27T11:42:21;6.85;;;3.42;;
42186;SDS011;27858;51.414;0.018;2023-04-27T11:44:58;7.32;;;2.95;;
42186;SDS011;27858;51.414;0.018;2023-04-27T11:47:32;7.57;;;3.25;;
42186;SDS011;27858;51.414;0.018;2023-04-27T11:50:06;8.15;;;3.30;;
42186;SDS011;27858;51.414;0.018;2023-04-27T11:52:35;5.40;;;3.05;;
42186;SDS011;27858;51.414;0.018;2023-04-27T11:55:04;4.72;;;3.08;;
42186;SDS011;27858;51.414;0.018;2023-04-27T11:57:34;6.10;;;3.63;;
42186;SDS011;27858;51.414;0.018;2023-04-27T12:00:03;7.82;;;4.28;;
42186;SDS011;27858;51.414;0.018;2023-04-27T12:02:37;8.35;;;3.58;;
42186;SDS011;27858;51.414;0.018;2023-04-27T12:05:04;9.32;;;3.72;;
42186;SDS011;27858;51.414;0.018;2023-04-27T12:07:32;6.57;;;3.22;;
42186;SDS011;27858;51.414;0.018;2023-04-27T12:09:59;8.52;;;3.63;;
42186;SDS011;27858;51.414;0.018;2023-04-27T12:12:26;4.88;;;2.78;;
42186;SDS011;27858;51.414;0.018;2023-04-27T12:14:53;4.47;;;3.22;;
42186;SDS011;27858;51.414;0.018;2023-04-27T12:17:20;6.07;;;3.05;;
42186;SDS011;27858;51.414;0.018;2023-04-27T12:19:46;9.88;;;3.47;;
42186;SDS011;27858;51.414;0.018;2023-04-27T12:22:14;5.47;;;2.92;;
42186;SDS011;27858;51.414;0.018;2023-04-27T12:24:41;9.45;;;4.97;;
42186;SDS011;27858;51.414;0.018;2023-04-27T12:27:08;6.70;;;4.00;;
42186;SDS011;27858;51.414;0.018;2023-04-27T12:29:34;13.25;;;4.47;;
42186;SDS011;27858;51.414;0.018;2023-04-27T12:32:02;8.45;;;3.78;;
42186;SDS011;27858;51.414;0.018;2023-04-27T12:34:30;7.68;;;2.88;;
42186;SDS011;27858;51.414;0.018;2023-04-27T12:37:00;6.72;;;2.72;;
42186;SDS011;27858;51.414;0.018;2023-04-27T12:39:27;6.60;;;3.42;;
42186;SDS011;27858;51.414;0.018;2023-04-27T12:41:55;5.28;;;3.03;;
42186;SDS011;27858;51.414;0.018;2023-04-27T12:44:23;5.43;;;3.47;;
42186;SDS011;27858;51.414;0.018;2023-04-27T12:46:50;5.70;;;3.13;;
42186;SDS011;27858;51.414;0.018;2023-04-27T12:49:17;9.10;;;3.17;;
42186;SDS011;27858;51.414;0.018;2023-04-27T12:51:43;4.68;;;3.42;;
42186;SDS011;27858;51.414;0.018;2023-04-27T12:54:13;3.78;;;3.28;;
42186;SDS011;27858;51.414;0.018;2023-04-27T12:56:40;5.20;;;2.90;;
42186;SDS011;27858;51.414;0.018;2023-04-27T12:59:07;6.65;;;3.65;;
42186;SDS011;27858;51.414;0.018;2023-04-27T13:01:34;6.15;;;3.88;;
42186;SDS011;27858;51.414;0.018;2023-04-27T13:04:01;6.25;;;3.53;;
42186;SDS011;27858;51.414;0.018;2023-04-27T13:06:30;6.30;;;2.97;;
42186;SDS011;27858;51.414;0.018;2023-04-27T13:08:57;7.28;;;2.97;;
42186;SDS011;27858;51.414;0.018;2023-04-27T13:11:25;7.32;;;3.63;;
42186;SDS011;27858;51.414;0.018;2023-04-27T13:13:52;7.95;;;3.17;;
42186;SDS011;27858;51.414;0.018;2023-04-27T13:16:20;5.68;;;3.38;;
42186;SDS011;27858;51.414;0.018;2023-04-27T13:18:50;11.70;;;4.78;;
42186;SDS011;27858;51.414;0.018;2023-04-27T13:21:17;6.20;;;4.10;;
42186;SDS011;27858;51.414;0.018;2023-04-27T13:23:44;5.68;;;3.67;;
42186;SDS011;27858;51.414;0.018;2023-04-27T13:26:12;6.40;;;4.03;;
42186;SDS011;27858;51.414;0.018;2023-04-27T13:28:39;9.15;;;3.78;;
42186;SDS011;27858;51.414;0.018;2023-04-27T13:31:06;6.50;;;3.40;;
42186;SDS011;27858;51.414;0.018;2023-04-27T13:33:38;7.80;;;4.65;;
42186;SDS011;27858;51.414;0.018;2023-04-27T13:36:09;4.38;;;2.50;;
42186;SDS011;27858;51.414;0.018;2023-04-27T13:38:36;7.05;;;3.33;;
42186;SDS011;27858;51.414;0.018;2023-04-27T13:41:03;8.63;;;3.38;;
42186;SDS011;27858;51.414;0.018;2023-04-27T13:43:30;5.45;;;3.60;;
42186;SDS011;27858;51.414;0.018;2023-04-27T13:45:58;9.75;;;3.42;;
42186;SDS011;27858;51.414;0.018;2023-04-27T13:48:26;7.30;;;3.38;;
42186;SDS011;27858;51.414;0.018;2023-04-27T13:50:54;7.57;;;4.40;;
42186;SDS011;27858;51.414;0.018;2023-04-27T13:53:21;18.23;;;4.35;;
42186;SDS011;27858;51.414;0.018;2023-04-27T13:55:52;7.50;;;3.58;;
42186;SDS011;27858;51.414;0.018;2023-04-27T13:58:20;9.45;;;4.28;;
42186;SDS011;27858;51.414;0.018;2023-04-27T14:00:51;11.38;;;4.20;;
42186;SDS011;27858;51.414;0.018;2023-04-27T14:03:21;6.90;;;3.75;;
42186;SDS011;27858;51.414;0.018;2023-04-27T14:05:52;5.97;;;4.32;;
42186;SDS011;27858;51.414;0.018;2023-04-27T14:08:21;8.63;;;4.23;;
42186;SDS011;27858;51.414;0.018;2023-04-27T14:10:48;6.03;;;3.53;;
42186;SDS011;27858;51.414;0.018;2023-04-27T14:13:19;8.13;;;3.85;;
42186;SDS011;27858;51.414;0.018;2023-04-27T14:15:46;6.43;;;3.10;;
42186;SDS011;27858;51.414;0.018;2023-04-27T14:18:13;7.47;;;3.95;;
42186;SDS011;27858;51.414;0.018;2023-04-27T14:20:40;9.75;;;4.78;;
42186;SDS011;27858;51.414;0.018;2023-04-27T14:23:09;7.88;;;3.85;;
42186;SDS011;27858;51.414;0.018;2023-04-27T14:25:36;7.40;;;4.30;;
42186;SDS011;27858;51.414;0.018;2023-04-27T14:28:04;7.50;;;4.68;;
42186;SDS011;27858;51.414;0.018;2023-04-27T14:30:31;9.00;;;4.22;;
42186;SDS011;27858;51.414;0.018;2023-04-27T14:32:59;13.27;;;5.68;;
42186;SDS011;27858;51.414;0.018;2023-04-27T14:35:27;35.47;;;5.45;;
42186;SDS011;27858;51.414;0.018;2023-04-27T14:37:53;6.25;;;3.13;;
42186;SDS011;27858;51.414;0.018;2023-04-27T14:40:22;9.10;;;5.00;;
42186;SDS011;27858;51.414;0.018;2023-04-27T14:42:49;9.13;;;4.15;;
42186;SDS011;27858;51.414;0.018;2023-04-27T14:45:15;11.73;;;5.72;;
42186;SDS011;27858;51.414;0.018;2023-04-27T14:47:44;7.22;;;4.43;;
42186;SDS011;27858;51.414;0.018;2023-04-27T14:50:10;10.48;;;5.18;;
42186;SDS011;27858;51.414;0.018;2023-04-27T14:52:37;6.40;;;4.60;;
42186;SDS011;27858;51.414;0.018;2023-04-27T14:55:04;10.45;;;4.75;;
42186;SDS011;27858;51.414;0.018;2023-04-27T14:57:32;7.82;;;4.47;;
42186;SDS011;27858;51.414;0.018;2023-04-27T14:59:59;10.70;;;4.90;;
42186;SDS011;27858;51.414;0.018;2023-04-27T15:02:26;6.53;;;4.20;;
42186;SDS011;27858;51.414;0.018;2023-04-27T15:04:52;10.10;;;5.15;;
42186;SDS011;27858;51.414;0.018;2023-04-27T15:07:19;6.93;;;5.03;;
42186;SDS011;27858;51.414;0.018;2023-04-27T15:09:46;11.02;;;5.00;;
42186;SDS011;27858;51.414;0.018;2023-04-27T15:12:13;12.45;;;5.28;;
42186;SDS011;27858;51.414;0.018;2023-04-27T15:14:40;10.38;;;5.10;;
42186;SDS011;27858;51.414;0.018;2023-04-27T15:17:06;8.15;;;4.20;;
42186;SDS011;27858;51.414;0.018;2023-04-27T15:19:33;9.90;;;4.03;;
42186;SDS011;27858;51.414;0.018;2023-04-27T15:22:00;9.75;;;4.80;;
42186;SDS011;27858;51.414;0.018;2023-04-27T15:24:27;7.10;;;3.78;;
42186;SDS011;27858;51.414;0.018;2023-04-27T15:26:54;10.15;;;5.65;;
42186;SDS011;27858;51.414;0.018;2023-04-27T15:29:21;6.43;;;3.85;;
42186;SDS011;27858;51.414;0.018;2023-04-27T15:31:48;11.02;;;4.93;;
42186;SDS011;27858;51.414;0.018;2023-04-27T15:34:15;8.68;;;4.32;;
42186;SDS011;27858;51.414;0.018;2023-04-27T15:36:42;8.48;;;5.28;;
42186;SDS011;27858;51.414;0.018;2023-04-27T15:39:09;6.82;;;3.83;;
42186;SDS011;27858;51.414;0.018;2023-04-27T15:41:36;6.03;;;4.25;;
42186;SDS011;27858;51.414;0.018;2023-04-27T15:44:03;12.13;;;5.18;;
42186;SDS011;27858;51.414;0.018;2023-04-27T15:46:31;5.63;;;4.20;;
42186;SDS011;27858;51.414;0.018;2023-04-27T15:48:58;8.38;;;5.45;;
42186;SDS011;27858;51.414;0.018;2023-04-27T15:51:25;7.28;;;4.88;;
42186;SDS011;27858;51.414;0.018;2023-04-27T15:53:51;5.65;;;4.53;;
42186;SDS011;27858;51.414;0.018;2023-04-27T15:56:18;9.32;;;5.18;;
42186;SDS011;27858;51.414;0.018;2023-04-27T15:58:45;7.32;;;4.15;;
42186;SDS011;27858;51.414;0.018;2023-04-27T16:01:12;9.48;;;5.30;;
42186;SDS011;27858;51.414;0.018;2023-04-27T16:03:38;9.25;;;5.55;;
42186;SDS011;27858;51.414;0.018;2023-04-27T16:06:06;8.30;;;4.28;;
42186;SDS011;27858;51.414;0.018;2023-04-27T16:08:32;7.78;;;4.68;;
42186;SDS011;27858;51.414;0.018;2023-04-27T16:10:59;7.97;;;4.30;;
42186;SDS011;27858;51.414;0.018;2023-04-27T16:13:26;7.50;;;4.80;;
42186;SDS011;27858;51.414;0.018;2023-04-27T16:15:53;7.00;;;4.40;;
42186;SDS011;27858;51.414;0.018;2023-04-27T16:18:20;8.63;;;4.22;;
42186;SDS011;27858;51.414;0.018;2023-04-27T16:20:47;9.63;;;4.90;;
42186;SDS011;27858;51.414;0.018;2023-04-27T16:23:14;9.48;;;4.97;;
42186;SDS011;27858;51.414;0.018;2023-04-27T16:25:41;7.63;;;4.05;;
42186;SDS011;27858;51.414;0.018;2023-04-27T16:28:08;10.63;;;6.68;;
42186;SDS011;27858;51.414;0.018;2023-04-27T16:30:35;8.88;;;5.80;;
42186;SDS011;27858;51.414;0.018;2023-04-27T16:33:03;13.60;;;5.93;;
42186;SDS011;27858;51.414;0.018;2023-04-27T16:35:30;10.00;;;4.80;;
42186;SDS011;27858;51.414;0.018;2023-04-27T16:37:58;7.90;;;4.72;;
42186;SDS011;27858;51.414;0.018;2023-04-27T16:40:25;10.48;;;5.65;;
42186;SDS011;27858;51.414;0.018;2023-04-27T16:42:52;11.30;;;5.22;;
42186;SDS011;27858;51.414;0.018;2023-04-27T16:45:18;13.88;;;5.95;;
42186;SDS011;27858;51.414;0.018;2023-04-27T16:47:45;8.73;;;4.75;;
42186;SDS011;27858;51.414;0.018;2023-04-27T16:50:12;13.52;;;7.82;;
42186;SDS011;27858;51.414;0.018;2023-04-27T16:52:39;14.48;;;6.00;;
42186;SDS011;27858;51.414;0.018;2023-04-27T16:55:06;10.77;;;5.28;;
42186;SDS011;27858;51.414;0.018;2023-04-27T16:57:33;11.02;;;6.65;;
42186;SDS011;27858;51.414;0.018;2023-04-27T17:00:00;13.10;;;5.60;;
42186;SDS011;27858;51.414;0.018;2023-04-27T17:02:27;12.73;;;6.35;;
42186;SDS011;27858;51.414;0.018;2023-04-27T17:04:54;13.65;;;6.57;;
42186;SDS011;27858;51.414;0.018;2023-04-27T17:07:21;11.60;;;6.20;;
42186;SDS011;27858;51.414;0.018;2023-04-27T17:09:48;10.48;;;6.80;;
42186;SDS011;27858;51.414;0.018;2023-04-27T17:12:15;15.27;;;9.77;;
42186;SDS011;27858;51.414;0.018;2023-04-27T17:14:42;17.02;;;9.60;;
42186;SDS011;27858;51.414;0.018;2023-04-27T17:17:09;15.77;;;9.55;;
42186;SDS011;27858;51.414;0.018;2023-04-27T17:19:37;16.25;;;9.13;;
42186;SDS011;27858;51.414;0.018;2023-04-27T17:22:04;18.55;;;11.30;;
42186;SDS011;27858;51.414;0.018;2023-04-27T17:24:32;19.67;;;12.07;;
42186;SDS011;27858;51.414;0.018;2023-04-27T17:26:59;17.85;;;9.70;;
42186;SDS011;27858;51.414;0.018;2023-04-27T17:29:26;21.05;;;12.88;;
42186;SDS011;27858;51.414;0.018;2023-04-27T17:31:53;22.15;;;8.82;;
42186;SDS011;27858;51.414;0.018;2023-04-27T17:34:20;29.73;;;9.85;;
42186;SDS011;27858;51.414;0.018;2023-04-27T17:36:47;13.40;;;7.50;;
42186;SDS011;27858;51.414;0.018;2023-04-27T17:39:13;13.02;;;8.07;;
42186;SDS011;27858;51.414;0.018;2023-04-27T17:41:41;15.73;;;8.25;;
42186;SDS011;27858;51.414;0.018;2023-04-27T17:44:07;13.07;;;7.50;;
42186;SDS011;27858;51.414;0.018;2023-04-27T17:46:37;12.32;;;7.53;;
42186;SDS011;27858;51.414;0.018;2023-04-27T17:49:03;14.60;;;6.95;;
42186;SDS011;27858;51.414;0.018;2023-04-27T17:51:31;14.07;;;7.18;;
42186;SDS011;27858;51.414;0.018;2023-04-27T17:53:59;13.23;;;6.97;;
42186;SDS011;27858;51.414;0.018;2023-04-27T17:56:25;14.23;;;8.27;;
42186;SDS011;27858;51.414;0.018;2023-04-27T17:58:52;12.25;;;7.57;;
42186;SDS011;27858;51.414;0.018;2023-04-27T18:01:19;11.25;;;6.93;;
42186;SDS011;27858;51.414;0.018;2023-04-27T18:03:46;11.68;;;7.55;;
42186;SDS011;27858;51.414;0.018;2023-04-27T18:06:15;10.77;;;7.15;;
42186;SDS011;27858;51.414;0.018;2023-04-27T18:08:44;15.10;;;8.77;;
42186;SDS011;27858;51.414;0.018;2023-04-27T18:11:11;11.60;;;7.05;;
42186;SDS011;27858;51.414;0.018;2023-04-27T18:13:37;19.35;;;8.27;;
42186;SDS011;27858;51.414;0.018;2023-04-27T18:16:04;11.30;;;8.57;;
42186;SDS011;27858;51.414;0.018;2023-04-27T18:18:31;14.65;;;7.50;;
42186;SDS011;27858;51.414;0.018;2023-04-27T18:20:58;12.73;;;8.27;;
42186;SDS011;27858;51.414;0.018;2023-04-27T18:23:24;15.95;;;8.70;;
42186;SDS011;27858;51.414;0.018;2023-04-27T18:25:52;15.50;;;9.38;;
42186;SDS011;27858;51.414;0.018;2023-04-27T18:28:22;14.27;;;8.10;;
42186;SDS011;27858;51.414;0.018;2023-04-27T18:30:49;18.08;;;9.15;;
42186;SDS011;27858;51.414;0.018;2023-04-27T18:33:16;12.07;;;7.13;;
42186;SDS011;27858;51.414;0.018;2023-04-27T18:35:45;11.07;;;6.88;;
42186;SDS011;27858;51.414;0.018;2023-04-27T18:38:12;12.45;;;8.07;;
42186;SDS011;27858;51.414;0.018;2023-04-27T18:40:39;13.30;;;7.43;;
42186;SDS011;27858;51.414;0.018;2023-04-27T18:43:06;12.88;;;7.90;;
42186;SDS011;27858;51.414;0.018;2023-04-27T18:45:33;11.90;;;7.03;;
42186;SDS011;27858;51.414;0.018;2023-04-27T18:48:00;16.05;;;7.70;;
42186;SDS011;27858;51.414;0.018;2023-04-27T18:50:26;14.82;;;8.82;;
42186;SDS011;27858;51.414;0.018;2023-04-27T18:52:53;15.60;;;7.63;;
42186;SDS011;27858;51.414;0.018;2023-04-27T18:55:20;12.93;;;7.90;;
42186;SDS011;27858;51.414;0.018;2023-04-27T18:57:47;15.05;;;8.05;;
42186;SDS011;27858;51.414;0.018;2023-04-27T19:00:14;13.55;;;8.45;;
42186;SDS011;27858;51.414;0.018;2023-04-27T19:02:41;10.57;;;6.68;;
42186;SDS011;27858;51.414;0.018;2023-04-27T19:05:08;13.68;;;7.70;;
42186;SDS011;27858;51.414;0.018;2023-04-27T19:07:39;12.88;;;8.48;;
42186;SDS011;27858;51.414;0.018;2023-04-27T19:10:06;10.23;;;6.90;;